sensor_id;sensor_type;location;lat;lon;timestamp;P1;durP1;ratioP1;P2;durP2;ratioP2
65174;SDS011;51761;42.126;24.752;2023-03-04T00:01:46;122.50;;;51.10;;
65174;SDS011;51761;42.126;24.752;2023-03-04T00:04:12;115.55;;;52.90;;
65174;SDS011;51761;42.126;24.752;2023-03-04T00:06:37;117.97;;;56.78;;
65174;SDS011;51761;42.126;24.752;2023-03-04T00:09:03;102.70;;;50.85;;
65174;SDS011;51761;42.126;24.752;2023-03-04T00:11:29;107.90;;;52.58;;
65174;SDS011;51761;42.126;24.752;2023-03-04T00:13:55;97.10;;;50.38;;
65174;SDS011;51761;42.126;24.752;2023-03-04T00:16:21;99.70;;;48.83;;
65174;SDS011;51761;42.126;24.752;2023-03-04T00:18:51;101.15;;;50.40;;
65174;SDS011;51761;42.126;24.752;2023-03-04T00:21:19;101.25;;;48.60;;
65174;SDS011;51761;42.126;24.752;2023-03-04T00:23:45;97.32;;;46.55;;
65174;SDS011;51761;42.126;24.752;2023-03-04T00:26:11;93.30;;;44.75;;
65174;SDS011;51761;42.126;24.752;2023-03-04T00:28:37;86.07;;;41.53;;
65174;SDS011;51761;42.126;24.752;2023-03-04T00:31:04;89.88;;;41.90;;
65174;SDS011;51761;42.126;24.752;2023-03-04T00:33:32;84.45;;;40.88;;
65174;SDS011;51761;42.126;24.752;2023-03-04T00:35:58;89.65;;;41.80;;
65174;SDS011;51761;42.126;24.752;2023-03-04T00:38:24;88.40;;;43.92;;
65174;SDS011;51761;42.126;24.752;2023-03-04T00:40:50;95.10;;;45.63;;
65174;SDS011;51761;42.126;24.752;2023-03-04T00:43:15;92.57;;;45.58;;
65174;SDS011;51761;42.126;24.752;2023-03-04T00:45:40;99.30;;;44.20;;
65174;SDS011;51761;42.126;24.752;2023-03-04T00:48:06;102.90;;;47.28;;
65174;SDS011;51761;42.126;24.752;2023-03-04T00:50:31;102.60;;;48.78;;
65174;SDS011;51761;42.126;24.752;2023-03-04T00:52:57;107.82;;;52.28;;
65174;SDS011;51761;42.126;24.752;2023-03-04T00:55:23;101.72;;;49.30;;
65174;SDS011;51761;42.126;24.752;2023-03-04T00:57:49;100.20;;;49.20;;
65174;SDS011;51761;42.126;24.752;2023-03-04T01:00:14;102.25;;;49.45;;
65174;SDS011;51761;42.126;24.752;2023-03-04T01:02:40;103.90;;;48.08;;
65174;SDS011;51761;42.126;24.752;2023-03-04T01:05:06;104.28;;;46.35;;
65174;SDS011;51761;42.126;24.752;2023-03-04T01:07:32;106.43;;;48.05;;
65174;SDS011;51761;42.126;24.752;2023-03-04T01:09:58;98.90;;;49.53;;
65174;SDS011;51761;42.126;24.752;2023-03-04T01:12:23;104.35;;;43.63;;
65174;SDS011;51761;42.126;24.752;2023-03-04T01:14:49;104.53;;;48.45;;
65174;SDS011;51761;42.126;24.752;2023-03-04T01:17:14;97.13;;;45.63;;
65174;SDS011;51761;42.126;24.752;2023-03-04T01:19:40;105.63;;;47.88;;
65174;SDS011;51761;42.126;24.752;2023-03-04T01:22:05;95.85;;;44.80;;
65174;SDS011;51761;42.126;24.752;2023-03-04T01:24:31;86.78;;;45.25;;
65174;SDS011;51761;42.126;24.752;2023-03-04T01:26:56;96.50;;;44.33;;
65174;SDS011;51761;42.126;24.752;2023-03-04T01:29:22;100.40;;;44.97;;
65174;SDS011;51761;42.126;24.752;2023-03-04T01:31:47;98.80;;;46.47;;
65174;SDS011;51761;42.126;24.752;2023-03-04T01:34:13;91.32;;;44.83;;
65174;SDS011;51761;42.126;24.752;2023-03-04T01:36:38;93.82;;;45.35;;
65174;SDS011;51761;42.126;24.752;2023-03-04T01:39:04;89.63;;;44.03;;
65174;SDS011;51761;42.126;24.752;2023-03-04T01:41:30;88.30;;;42.30;;
65174;SDS011;51761;42.126;24.752;2023-03-04T01:43:55;91.47;;;41.50;;
65174;SDS011;51761;42.126;24.752;2023-03-04T01:46:22;88.25;;;44.60;;
65174;SDS011;51761;42.126;24.752;2023-03-04T01:48:48;82.85;;;41.22;;
65174;SDS011;51761;42.126;24.752;2023-03-04T01:51:15;84.32;;;41.83;;
65174;SDS011;51761;42.126;24.752;2023-03-04T01:53:43;91.07;;;42.88;;
65174;SDS011;51761;42.126;24.752;2023-03-04T01:56:33;85.18;;;41.97;;
65174;SDS011;51761;42.126;24.752;2023-03-04T02:01:38;87.35;;;41.35;;
65174;SDS011;51761;42.126;24.752;2023-03-04T02:04:07;90.03;;;42.17;;
65174;SDS011;51761;42.126;24.752;2023-03-04T02:06:35;92.88;;;45.67;;
65174;SDS011;51761;42.126;24.752;2023-03-04T02:09:03;88.35;;;42.95;;
65174;SDS011;51761;42.126;24.752;2023-03-04T02:11:28;91.10;;;46.00;;
65174;SDS011;51761;42.126;24.752;2023-03-04T02:13:54;82.13;;;40.92;;
65174;SDS011;51761;42.126;24.752;2023-03-04T02:16:19;84.00;;;42.15;;
65174;SDS011;51761;42.126;24.752;2023-03-04T02:18:45;86.97;;;41.22;;
65174;SDS011;51761;42.126;24.752;2023-03-04T02:23:45;91.55;;;41.00;;
65174;SDS011;51761;42.126;24.752;2023-03-04T02:26:24;75.20;;;38.75;;
65174;SDS011;51761;42.126;24.752;2023-03-04T02:28:52;80.18;;;40.72;;
65174;SDS011;51761;42.126;24.752;2023-03-04T02:31:27;77.53;;;40.20;;
65174;SDS011;51761;42.126;24.752;2023-03-04T02:34:06;80.93;;;40.38;;
65174;SDS011;51761;42.126;24.752;2023-03-04T02:36:36;79.60;;;39.55;;
65174;SDS011;51761;42.126;24.752;2023-03-04T02:39:04;82.55;;;41.50;;
65174;SDS011;51761;42.126;24.752;2023-03-04T02:41:35;75.93;;;38.05;;
65174;SDS011;51761;42.126;24.752;2023-03-04T02:44:01;97.10;;;47.92;;
65174;SDS011;51761;42.126;24.752;2023-03-04T02:46:26;86.15;;;44.58;;
65174;SDS011;51761;42.126;24.752;2023-03-04T02:48:52;80.47;;;41.30;;
65174;SDS011;51761;42.126;24.752;2023-03-04T02:51:18;83.85;;;42.83;;
65174;SDS011;51761;42.126;24.752;2023-03-04T02:53:43;88.53;;;41.65;;
65174;SDS011;51761;42.126;24.752;2023-03-04T02:56:09;80.95;;;42.30;;
65174;SDS011;51761;42.126;24.752;2023-03-04T02:58:34;84.57;;;43.15;;
65174;SDS011;51761;42.126;24.752;2023-03-04T03:01:00;84.72;;;42.40;;
65174;SDS011;51761;42.126;24.752;2023-03-04T03:03:26;83.97;;;41.72;;
65174;SDS011;51761;42.126;24.752;2023-03-04T03:05:52;87.35;;;43.13;;
65174;SDS011;51761;42.126;24.752;2023-03-04T03:08:18;89.97;;;44.38;;
65174;SDS011;51761;42.126;24.752;2023-03-04T03:10:43;99.82;;;46.35;;
65174;SDS011;51761;42.126;24.752;2023-03-04T03:13:09;83.47;;;42.90;;
65174;SDS011;51761;42.126;24.752;2023-03-04T03:15:34;90.47;;;44.30;;
65174;SDS011;51761;42.126;24.752;2023-03-04T03:18:02;95.75;;;43.47;;
65174;SDS011;51761;42.126;24.752;2023-03-04T03:20:28;79.53;;;41.83;;
65174;SDS011;51761;42.126;24.752;2023-03-04T03:22:53;80.30;;;41.53;;
65174;SDS011;51761;42.126;24.752;2023-03-04T03:25:19;87.25;;;44.45;;
65174;SDS011;51761;42.126;24.752;2023-03-04T03:27:44;82.18;;;42.40;;
65174;SDS011;51761;42.126;24.752;2023-03-04T03:30:11;89.90;;;43.28;;
65174;SDS011;51761;42.126;24.752;2023-03-04T03:32:38;89.85;;;42.72;;
65174;SDS011;51761;42.126;24.752;2023-03-04T03:35:04;79.70;;;40.15;;
65174;SDS011;51761;42.126;24.752;2023-03-04T03:37:30;90.63;;;44.05;;
65174;SDS011;51761;42.126;24.752;2023-03-04T03:39:55;89.78;;;42.20;;
65174;SDS011;51761;42.126;24.752;2023-03-04T03:42:21;86.78;;;42.22;;
65174;SDS011;51761;42.126;24.752;2023-03-04T03:44:46;92.28;;;43.38;;
65174;SDS011;51761;42.126;24.752;2023-03-04T03:47:12;85.47;;;41.35;;
65174;SDS011;51761;42.126;24.752;2023-03-04T03:49:37;80.32;;;40.92;;
65174;SDS011;51761;42.126;24.752;2023-03-04T03:52:03;84.07;;;42.90;;
65174;SDS011;51761;42.126;24.752;2023-03-04T03:54:28;86.65;;;43.22;;
65174;SDS011;51761;42.126;24.752;2023-03-04T03:56:54;90.30;;;41.65;;
65174;SDS011;51761;42.126;24.752;2023-03-04T03:59:19;89.00;;;42.13;;
65174;SDS011;51761;42.126;24.752;2023-03-04T04:01:45;84.38;;;43.22;;
65174;SDS011;51761;42.126;24.752;2023-03-04T04:04:10;90.70;;;43.03;;
65174;SDS011;51761;42.126;24.752;2023-03-04T04:06:36;91.47;;;41.95;;
65174;SDS011;51761;42.126;24.752;2023-03-04T04:09:01;94.10;;;43.50;;
65174;SDS011;51761;42.126;24.752;2023-03-04T04:11:27;82.55;;;42.28;;
65174;SDS011;51761;42.126;24.752;2023-03-04T04:13:52;89.53;;;42.05;;
65174;SDS011;51761;42.126;24.752;2023-03-04T04:16:19;90.45;;;42.03;;
65174;SDS011;51761;42.126;24.752;2023-03-04T04:18:45;95.63;;;44.40;;
65174;SDS011;51761;42.126;24.752;2023-03-04T04:21:10;101.32;;;48.83;;
65174;SDS011;51761;42.126;24.752;2023-03-04T04:23:36;102.43;;;48.35;;
65174;SDS011;51761;42.126;24.752;2023-03-04T04:26:01;121.47;;;53.35;;
65174;SDS011;51761;42.126;24.752;2023-03-04T04:28:27;104.15;;;51.15;;
65174;SDS011;51761;42.126;24.752;2023-03-04T04:30:53;104.97;;;52.22;;
65174;SDS011;51761;42.126;24.752;2023-03-04T04:33:18;108.97;;;52.58;;
65174;SDS011;51761;42.126;24.752;2023-03-04T04:35:44;112.57;;;53.13;;
65174;SDS011;51761;42.126;24.752;2023-03-04T04:38:09;112.75;;;51.15;;
65174;SDS011;51761;42.126;24.752;2023-03-04T04:40:35;99.00;;;49.50;;
65174;SDS011;51761;42.126;24.752;2023-03-04T04:43:01;106.22;;;50.97;;
65174;SDS011;51761;42.126;24.752;2023-03-04T04:45:27;106.53;;;51.28;;
65174;SDS011;51761;42.126;24.752;2023-03-04T04:47:53;114.50;;;55.05;;
65174;SDS011;51761;42.126;24.752;2023-03-04T04:50:21;111.65;;;51.97;;
65174;SDS011;51761;42.126;24.752;2023-03-04T04:52:50;116.55;;;53.40;;
65174;SDS011;51761;42.126;24.752;2023-03-04T04:55:16;106.80;;;50.67;;
65174;SDS011;51761;42.126;24.752;2023-03-04T04:57:41;110.75;;;52.20;;
65174;SDS011;51761;42.126;24.752;2023-03-04T05:00:07;116.38;;;51.47;;
65174;SDS011;51761;42.126;24.752;2023-03-04T05:02:34;119.50;;;54.03;;
65174;SDS011;51761;42.126;24.752;2023-03-04T05:05:02;114.65;;;54.30;;
65174;SDS011;51761;42.126;24.752;2023-03-04T05:07:28;114.65;;;53.17;;
65174;SDS011;51761;42.126;24.752;2023-03-04T05:09:53;131.48;;;59.05;;
65174;SDS011;51761;42.126;24.752;2023-03-04T05:12:19;125.75;;;54.78;;
65174;SDS011;51761;42.126;24.752;2023-03-04T05:14:44;129.75;;;58.22;;
65174;SDS011;51761;42.126;24.752;2023-03-04T05:17:10;124.78;;;58.20;;
65174;SDS011;51761;42.126;24.752;2023-03-04T05:19:35;130.52;;;62.53;;
65174;SDS011;51761;42.126;24.752;2023-03-04T05:22:01;137.98;;;62.63;;
65174;SDS011;51761;42.126;24.752;2023-03-04T05:24:27;125.82;;;56.00;;
65174;SDS011;51761;42.126;24.752;2023-03-04T05:26:52;116.20;;;54.08;;
65174;SDS011;51761;42.126;24.752;2023-03-04T05:29:18;106.88;;;48.13;;
65174;SDS011;51761;42.126;24.752;2023-03-04T05:31:43;90.57;;;46.38;;
65174;SDS011;51761;42.126;24.752;2023-03-04T05:34:09;107.70;;;47.70;;
65174;SDS011;51761;42.126;24.752;2023-03-04T05:36:34;113.40;;;51.75;;
65174;SDS011;51761;42.126;24.752;2023-03-04T05:39:00;125.43;;;52.83;;
65174;SDS011;51761;42.126;24.752;2023-03-04T05:41:25;114.22;;;52.33;;
65174;SDS011;51761;42.126;24.752;2023-03-04T05:43:51;135.82;;;56.92;;
65174;SDS011;51761;42.126;24.752;2023-03-04T05:46:17;170.18;;;59.03;;
65174;SDS011;51761;42.126;24.752;2023-03-04T05:48:48;240.07;;;51.53;;
65174;SDS011;51761;42.126;24.752;2023-03-04T05:51:13;284.00;;;58.80;;
65174;SDS011;51761;42.126;24.752;2023-03-04T05:53:39;166.30;;;53.50;;
65174;SDS011;51761;42.126;24.752;2023-03-04T05:56:06;277.60;;;53.42;;
65174;SDS011;51761;42.126;24.752;2023-03-04T05:58:36;207.45;;;48.90;;
65174;SDS011;51761;42.126;24.752;2023-03-04T06:01:01;212.30;;;48.30;;
65174;SDS011;51761;42.126;24.752;2023-03-04T06:03:27;238.80;;;41.55;;
65174;SDS011;51761;42.126;24.752;2023-03-04T06:05:53;185.95;;;41.20;;
65174;SDS011;51761;42.126;24.752;2023-03-04T06:08:19;188.43;;;43.20;;
65174;SDS011;51761;42.126;24.752;2023-03-04T06:10:45;297.27;;;45.05;;
65174;SDS011;51761;42.126;24.752;2023-03-04T06:13:10;156.55;;;42.70;;
65174;SDS011;51761;42.126;24.752;2023-03-04T06:15:37;269.60;;;45.55;;
65174;SDS011;51761;42.126;24.752;2023-03-04T06:18:03;207.32;;;39.30;;
65174;SDS011;51761;42.126;24.752;2023-03-04T06:20:29;161.85;;;43.90;;
65174;SDS011;51761;42.126;24.752;2023-03-04T06:22:55;218.18;;;40.35;;
65174;SDS011;51761;42.126;24.752;2023-03-04T06:25:20;159.68;;;35.95;;
65174;SDS011;51761;42.126;24.752;2023-03-04T06:27:46;139.82;;;38.25;;
65174;SDS011;51761;42.126;24.752;2023-03-04T06:30:11;183.02;;;40.38;;
65174;SDS011;51761;42.126;24.752;2023-03-04T06:32:37;129.85;;;38.35;;
65174;SDS011;51761;42.126;24.752;2023-03-04T06:35:03;101.32;;;36.30;;
65174;SDS011;51761;42.126;24.752;2023-03-04T06:37:28;137.10;;;40.97;;
65174;SDS011;51761;42.126;24.752;2023-03-04T06:39:54;188.55;;;43.55;;
65174;SDS011;51761;42.126;24.752;2023-03-04T06:42:20;253.50;;;37.85;;
65174;SDS011;51761;42.126;24.752;2023-03-04T06:44:47;192.00;;;38.78;;
65174;SDS011;51761;42.126;24.752;2023-03-04T06:47:13;113.50;;;39.72;;
65174;SDS011;51761;42.126;24.752;2023-03-04T06:49:40;178.02;;;42.65;;
65174;SDS011;51761;42.126;24.752;2023-03-04T06:52:05;180.65;;;42.60;;
65174;SDS011;51761;42.126;24.752;2023-03-04T06:54:31;128.60;;;41.55;;
65174;SDS011;51761;42.126;24.752;2023-03-04T06:56:56;125.82;;;43.60;;
65174;SDS011;51761;42.126;24.752;2023-03-04T06:59:22;115.63;;;42.13;;
65174;SDS011;51761;42.126;24.752;2023-03-04T07:01:47;117.68;;;43.03;;
65174;SDS011;51761;42.126;24.752;2023-03-04T07:04:13;102.40;;;40.50;;
65174;SDS011;51761;42.126;24.752;2023-03-04T07:06:39;170.65;;;67.43;;
65174;SDS011;51761;42.126;24.752;2023-03-04T07:09:04;129.60;;;43.25;;
65174;SDS011;51761;42.126;24.752;2023-03-04T07:11:31;127.65;;;43.60;;
65174;SDS011;51761;42.126;24.752;2023-03-04T07:13:58;134.07;;;46.53;;
65174;SDS011;51761;42.126;24.752;2023-03-04T07:16:23;117.28;;;47.92;;
65174;SDS011;51761;42.126;24.752;2023-03-04T07:18:49;124.05;;;44.35;;
65174;SDS011;51761;42.126;24.752;2023-03-04T07:21:15;118.07;;;45.55;;
65174;SDS011;51761;42.126;24.752;2023-03-04T07:23:41;117.13;;;45.47;;
65174;SDS011;51761;42.126;24.752;2023-03-04T07:26:06;148.05;;;57.00;;
65174;SDS011;51761;42.126;24.752;2023-03-04T07:28:32;115.57;;;43.20;;
65174;SDS011;51761;42.126;24.752;2023-03-04T07:33:54;123.25;;;44.83;;
65174;SDS011;51761;42.126;24.752;2023-03-04T07:36:21;166.10;;;55.70;;
65174;SDS011;51761;42.126;24.752;2023-03-04T07:38:47;147.50;;;52.83;;
65174;SDS011;51761;42.126;24.752;2023-03-04T07:41:14;119.35;;;50.15;;
65174;SDS011;51761;42.126;24.752;2023-03-04T07:43:40;90.68;;;39.97;;
65174;SDS011;51761;42.126;24.752;2023-03-04T07:46:05;72.60;;;34.30;;
65174;SDS011;51761;42.126;24.752;2023-03-04T07:48:31;62.92;;;31.80;;
65174;SDS011;51761;42.126;24.752;2023-03-04T07:53:33;66.38;;;30.60;;
65174;SDS011;51761;42.126;24.752;2023-03-04T07:55:59;67.30;;;31.83;;
65174;SDS011;51761;42.126;24.752;2023-03-04T07:58:25;75.57;;;34.78;;
65174;SDS011;51761;42.126;24.752;2023-03-04T08:00:50;85.00;;;36.53;;
65174;SDS011;51761;42.126;24.752;2023-03-04T08:03:16;73.95;;;33.00;;
65174;SDS011;51761;42.126;24.752;2023-03-04T08:05:41;77.38;;;35.20;;
65174;SDS011;51761;42.126;24.752;2023-03-04T08:08:07;69.80;;;34.38;;
65174;SDS011;51761;42.126;24.752;2023-03-04T08:10:33;82.32;;;36.10;;
65174;SDS011;51761;42.126;24.752;2023-03-04T08:12:58;90.53;;;37.75;;
65174;SDS011;51761;42.126;24.752;2023-03-04T08:15:24;94.07;;;38.83;;
65174;SDS011;51761;42.126;24.752;2023-03-04T08:17:51;86.72;;;38.55;;
65174;SDS011;51761;42.126;24.752;2023-03-04T08:20:17;83.57;;;38.22;;
65174;SDS011;51761;42.126;24.752;2023-03-04T08:22:43;85.35;;;40.22;;
65174;SDS011;51761;42.126;24.752;2023-03-04T08:25:08;93.30;;;38.63;;
65174;SDS011;51761;42.126;24.752;2023-03-04T08:27:34;87.32;;;37.42;;
65174;SDS011;51761;42.126;24.752;2023-03-04T08:30:01;88.10;;;38.05;;
65174;SDS011;51761;42.126;24.752;2023-03-04T08:32:28;85.28;;;37.55;;
65174;SDS011;51761;42.126;24.752;2023-03-04T08:34:53;90.25;;;39.22;;
65174;SDS011;51761;42.126;24.752;2023-03-04T08:37:20;86.18;;;36.80;;
65174;SDS011;51761;42.126;24.752;2023-03-04T08:39:45;77.70;;;36.33;;
65174;SDS011;51761;42.126;24.752;2023-03-04T08:42:11;88.40;;;37.83;;
65174;SDS011;51761;42.126;24.752;2023-03-04T08:44:36;76.82;;;36.08;;
65174;SDS011;51761;42.126;24.752;2023-03-04T08:47:02;84.72;;;37.30;;
65174;SDS011;51761;42.126;24.752;2023-03-04T08:49:27;85.30;;;37.90;;
65174;SDS011;51761;42.126;24.752;2023-03-04T08:51:53;85.60;;;37.72;;
65174;SDS011;51761;42.126;24.752;2023-03-04T08:54:18;84.30;;;36.85;;
65174;SDS011;51761;42.126;24.752;2023-03-04T08:56:44;84.88;;;39.85;;
65174;SDS011;51761;42.126;24.752;2023-03-04T08:59:09;86.60;;;40.33;;
65174;SDS011;51761;42.126;24.752;2023-03-04T09:01:35;92.05;;;43.15;;
65174;SDS011;51761;42.126;24.752;2023-03-04T09:04:01;87.72;;;42.03;;
65174;SDS011;51761;42.126;24.752;2023-03-04T09:06:26;99.60;;;45.17;;
65174;SDS011;51761;42.126;24.752;2023-03-04T09:08:52;97.95;;;45.53;;
65174;SDS011;51761;42.126;24.752;2023-03-04T09:11:17;96.00;;;43.80;;
65174;SDS011;51761;42.126;24.752;2023-03-04T09:13:43;86.18;;;42.03;;
65174;SDS011;51761;42.126;24.752;2023-03-04T09:16:09;88.75;;;40.70;;
65174;SDS011;51761;42.126;24.752;2023-03-04T09:18:36;93.20;;;46.85;;
65174;SDS011;51761;42.126;24.752;2023-03-04T09:21:03;77.35;;;40.05;;
65174;SDS011;51761;42.126;24.752;2023-03-04T09:23:29;82.05;;;37.60;;
65174;SDS011;51761;42.126;24.752;2023-03-04T09:25:54;83.70;;;39.75;;
65174;SDS011;51761;42.126;24.752;2023-03-04T09:28:19;70.28;;;35.83;;
65174;SDS011;51761;42.126;24.752;2023-03-04T09:30:45;83.90;;;39.47;;
65174;SDS011;51761;42.126;24.752;2023-03-04T09:33:11;79.63;;;41.20;;
65174;SDS011;51761;42.126;24.752;2023-03-04T09:35:37;74.50;;;39.65;;
65174;SDS011;51761;42.126;24.752;2023-03-04T09:38:03;80.35;;;37.63;;
65174;SDS011;51761;42.126;24.752;2023-03-04T09:40:31;76.55;;;36.25;;
65174;SDS011;51761;42.126;24.752;2023-03-04T09:43:03;82.07;;;38.35;;
65174;SDS011;51761;42.126;24.752;2023-03-04T09:45:36;72.25;;;36.60;;
65174;SDS011;51761;42.126;24.752;2023-03-04T09:48:05;68.78;;;37.53;;
65174;SDS011;51761;42.126;24.752;2023-03-04T09:50:35;76.20;;;36.55;;
65174;SDS011;51761;42.126;24.752;2023-03-04T09:53:22;81.47;;;38.28;;
65174;SDS011;51761;42.126;24.752;2023-03-04T09:55:57;66.20;;;36.38;;
65174;SDS011;51761;42.126;24.752;2023-03-04T10:01:02;75.80;;;38.45;;
65174;SDS011;51761;42.126;24.752;2023-03-04T10:06:10;74.90;;;37.95;;
65174;SDS011;51761;42.126;24.752;2023-03-04T10:08:49;79.10;;;41.08;;
65174;SDS011;51761;42.126;24.752;2023-03-04T10:11:19;74.70;;;38.17;;
65174;SDS011;51761;42.126;24.752;2023-03-04T10:16:17;71.57;;;36.70;;
65174;SDS011;51761;42.126;24.752;2023-03-04T10:19:50;64.95;;;35.10;;
65174;SDS011;51761;42.126;24.752;2023-03-04T10:21:43;56.85;;;32.22;;
65174;SDS011;51761;42.126;24.752;2023-03-04T10:24:16;72.35;;;34.55;;
65174;SDS011;51761;42.126;24.752;2023-03-04T10:26:48;61.50;;;33.30;;
65174;SDS011;51761;42.126;24.752;2023-03-04T10:29:19;57.53;;;31.63;;
65174;SDS011;51761;42.126;24.752;2023-03-04T10:31:46;54.60;;;32.33;;
65174;SDS011;51761;42.126;24.752;2023-03-04T10:34:13;65.68;;;31.08;;
65174;SDS011;51761;42.126;24.752;2023-03-04T10:36:49;54.15;;;29.67;;
65174;SDS011;51761;42.126;24.752;2023-03-04T10:42:32;55.22;;;30.13;;
65174;SDS011;51761;42.126;24.752;2023-03-04T10:44:40;55.97;;;30.10;;
65174;SDS011;51761;42.126;24.752;2023-03-04T10:47:10;54.00;;;28.65;;
65174;SDS011;51761;42.126;24.752;2023-03-04T10:49:48;55.80;;;31.35;;
65174;SDS011;51761;42.126;24.752;2023-03-04T10:54:50;64.13;;;32.47;;
65174;SDS011;51761;42.126;24.752;2023-03-04T10:57:19;64.45;;;33.72;;
65174;SDS011;51761;42.126;24.752;2023-03-04T10:59:57;61.53;;;34.15;;
65174;SDS011;51761;42.126;24.752;2023-03-04T11:04:56;61.38;;;34.17;;
65174;SDS011;51761;42.126;24.752;2023-03-04T11:07:31;61.35;;;31.77;;
65174;SDS011;51761;42.126;24.752;2023-03-04T11:10:08;61.00;;;31.63;;
65174;SDS011;51761;42.126;24.752;2023-03-04T11:12:38;61.92;;;32.65;;
65174;SDS011;51761;42.126;24.752;2023-03-04T11:15:14;63.95;;;35.22;;
65174;SDS011;51761;42.126;24.752;2023-03-04T11:17:47;75.82;;;38.40;;
65174;SDS011;51761;42.126;24.752;2023-03-04T11:22:57;63.00;;;32.63;;
65174;SDS011;51761;42.126;24.752;2023-03-04T11:25:34;61.08;;;31.95;;
65174;SDS011;51761;42.126;24.752;2023-03-04T11:28:22;64.63;;;34.97;;
65174;SDS011;51761;42.126;24.752;2023-03-04T11:30:56;64.75;;;34.15;;
65174;SDS011;51761;42.126;24.752;2023-03-04T11:33:32;67.90;;;34.43;;
65174;SDS011;51761;42.126;24.752;2023-03-04T11:39:04;56.10;;;29.30;;
65174;SDS011;51761;42.126;24.752;2023-03-04T11:41:45;61.22;;;30.33;;
65174;SDS011;51761;42.126;24.752;2023-03-04T11:44:26;64.05;;;31.98;;
65174;SDS011;51761;42.126;24.752;2023-03-04T12:00:44;49.88;;;27.30;;
65174;SDS011;51761;42.126;24.752;2023-03-04T12:42:17;53.78;;;29.08;;
65174;SDS011;51761;42.126;24.752;2023-03-04T12:48:15;51.53;;;28.23;;
65174;SDS011;51761;42.126;24.752;2023-03-04T12:51:03;45.78;;;25.60;;
65174;SDS011;51761;42.126;24.752;2023-03-04T12:56:38;42.70;;;23.00;;
65174;SDS011;51761;42.126;24.752;2023-03-04T12:59:13;43.25;;;23.10;;
65174;SDS011;51761;42.126;24.752;2023-03-04T13:12:58;41.50;;;23.50;;
65174;SDS011;51761;42.126;24.752;2023-03-04T13:17:51;30.40;;;19.23;;
65174;SDS011;51761;42.126;24.752;2023-03-04T13:22:58;39.33;;;21.80;;
65174;SDS011;51761;42.126;24.752;2023-03-04T13:28:33;31.83;;;18.00;;
65174;SDS011;51761;42.126;24.752;2023-03-04T13:31:11;32.70;;;18.17;;
65174;SDS011;51761;42.126;24.752;2023-03-04T13:33:47;36.05;;;19.55;;
65174;SDS011;51761;42.126;24.752;2023-03-04T13:36:28;40.03;;;20.65;;
65174;SDS011;51761;42.126;24.752;2023-03-04T13:38:57;35.03;;;20.80;;
65174;SDS011;51761;42.126;24.752;2023-03-04T13:41:28;36.35;;;19.77;;
65174;SDS011;51761;42.126;24.752;2023-03-04T13:47:07;35.75;;;20.00;;
65174;SDS011;51761;42.126;24.752;2023-03-04T13:52:46;37.50;;;20.60;;
65174;SDS011;51761;42.126;24.752;2023-03-04T13:57:59;38.28;;;20.75;;
65174;SDS011;51761;42.126;24.752;2023-03-04T14:00:26;39.72;;;21.13;;
65174;SDS011;51761;42.126;24.752;2023-03-04T14:02:52;36.78;;;19.75;;
65174;SDS011;51761;42.126;24.752;2023-03-04T14:05:18;42.05;;;21.77;;
65174;SDS011;51761;42.126;24.752;2023-03-04T14:07:43;39.55;;;23.60;;
65174;SDS011;51761;42.126;24.752;2023-03-04T14:12:54;49.97;;;25.83;;
65174;SDS011;51761;42.126;24.752;2023-03-04T14:17:52;44.75;;;21.88;;
65174;SDS011;51761;42.126;24.752;2023-03-04T14:20:36;41.40;;;21.27;;
65174;SDS011;51761;42.126;24.752;2023-03-04T14:26:12;44.70;;;23.67;;
65174;SDS011;51761;42.126;24.752;2023-03-04T14:31:13;43.75;;;24.20;;
65174;SDS011;51761;42.126;24.752;2023-03-04T14:33:43;42.03;;;23.10;;
65174;SDS011;51761;42.126;24.752;2023-03-04T14:36:14;44.13;;;22.95;;
65174;SDS011;51761;42.126;24.752;2023-03-04T14:38:43;37.03;;;21.15;;
65174;SDS011;51761;42.126;24.752;2023-03-04T14:41:17;45.65;;;23.27;;
65174;SDS011;51761;42.126;24.752;2023-03-04T14:46:30;40.43;;;23.10;;
65174;SDS011;51761;42.126;24.752;2023-03-04T14:49:00;40.53;;;22.70;;
65174;SDS011;51761;42.126;24.752;2023-03-04T14:51:31;39.65;;;21.17;;
65174;SDS011;51761;42.126;24.752;2023-03-04T14:59:43;44.85;;;23.05;;
65174;SDS011;51761;42.126;24.752;2023-03-04T15:05:06;42.15;;;24.35;;
65174;SDS011;51761;42.126;24.752;2023-03-04T15:07:34;45.22;;;24.70;;
65174;SDS011;51761;42.126;24.752;2023-03-04T15:10:03;42.47;;;23.33;;
65174;SDS011;51761;42.126;24.752;2023-03-04T15:12:31;48.72;;;25.10;;
65174;SDS011;51761;42.126;24.752;2023-03-04T15:15:03;46.72;;;24.45;;
65174;SDS011;51761;42.126;24.752;2023-03-04T15:17:56;47.03;;;24.20;;
65174;SDS011;51761;42.126;24.752;2023-03-04T15:20:27;42.20;;;23.00;;
65174;SDS011;51761;42.126;24.752;2023-03-04T15:22:56;45.13;;;24.38;;
65174;SDS011;51761;42.126;24.752;2023-03-04T15:25:24;50.00;;;24.13;;
65174;SDS011;51761;42.126;24.752;2023-03-04T15:27:50;47.22;;;24.45;;
65174;SDS011;51761;42.126;24.752;2023-03-04T15:32:46;49.33;;;23.25;;
65174;SDS011;51761;42.126;24.752;2023-03-04T15:35:12;52.95;;;24.23;;
65174;SDS011;51761;42.126;24.752;2023-03-04T15:37:39;54.03;;;29.17;;
65174;SDS011;51761;42.126;24.752;2023-03-04T15:40:39;48.67;;;27.45;;
65174;SDS011;51761;42.126;24.752;2023-03-04T15:43:06;51.35;;;25.77;;
65174;SDS011;51761;42.126;24.752;2023-03-04T15:45:35;47.35;;;25.95;;
65174;SDS011;51761;42.126;24.752;2023-03-04T15:48:05;48.88;;;25.60;;
65174;SDS011;51761;42.126;24.752;2023-03-04T15:50:35;50.50;;;25.10;;
65174;SDS011;51761;42.126;24.752;2023-03-04T15:55:51;52.75;;;27.80;;
65174;SDS011;51761;42.126;24.752;2023-03-04T15:58:17;50.30;;;27.23;;
65174;SDS011;51761;42.126;24.752;2023-03-04T16:00:43;55.40;;;28.60;;
65174;SDS011;51761;42.126;24.752;2023-03-04T16:03:18;58.63;;;29.10;;
65174;SDS011;51761;42.126;24.752;2023-03-04T16:05:46;54.78;;;27.35;;
65174;SDS011;51761;42.126;24.752;2023-03-04T16:08:14;56.90;;;28.45;;
65174;SDS011;51761;42.126;24.752;2023-03-04T16:10:42;59.22;;;28.17;;
65174;SDS011;51761;42.126;24.752;2023-03-04T16:13:13;54.22;;;29.88;;
65174;SDS011;51761;42.126;24.752;2023-03-04T16:15:40;70.45;;;29.17;;
65174;SDS011;51761;42.126;24.752;2023-03-04T16:18:07;84.88;;;43.47;;
65174;SDS011;51761;42.126;24.752;2023-03-04T16:20:33;67.63;;;32.78;;
65174;SDS011;51761;42.126;24.752;2023-03-04T16:22:59;76.70;;;38.15;;
65174;SDS011;51761;42.126;24.752;2023-03-04T16:25:26;63.92;;;31.15;;
65174;SDS011;51761;42.126;24.752;2023-03-04T16:27:53;58.45;;;29.42;;
65174;SDS011;51761;42.126;24.752;2023-03-04T16:30:26;53.87;;;29.87;;
65174;SDS011;51761;42.126;24.752;2023-03-04T16:32:52;65.35;;;31.10;;
65174;SDS011;51761;42.126;24.752;2023-03-04T16:35:19;60.63;;;30.45;;
65174;SDS011;51761;42.126;24.752;2023-03-04T16:37:45;65.03;;;30.85;;